createdAt,value
2019-05-07T00:02:05.742Z,83.37
2019-05-07T00:04:33.240Z,83.43
2019-05-07T00:07:02.405Z,83.93
2019-05-07T00:09:29.023Z,84.40
2019-05-07T00:11:55.895Z,82.94
2019-05-07T00:14:24.652Z,83.06
2019-05-07T00:16:53.460Z,84.19
2019-05-07T00:19:20.165Z,81.66
2019-05-07T00:21:46.922Z,81.36
2019-05-07T00:24:13.616Z,82.76
2019-05-07T00:26:42.793Z,82.88
2019-05-07T00:29:09.480Z,81.77
2019-05-07T00:31:37.077Z,81.29
2019-05-07T00:34:03.877Z,82.13
2019-05-07T00:36:38.395Z,82.22
2019-05-07T00:39:07.361Z,79.77
2019-05-07T00:41:52.592Z,80.54
2019-05-07T00:44:21.973Z,82.29
2019-05-07T00:46:48.397Z,80.53
2019-05-07T00:49:15.104Z,81.25
2019-05-07T00:51:42.404Z,82.92
2019-05-07T00:54:09.579Z,83.43
2019-05-07T00:56:36.338Z,84.45
2019-05-07T00:59:03.176Z,82.35
2019-05-07T01:01:32.225Z,83.50
2019-05-07T01:03:58.874Z,79.40
2019-05-07T01:06:26.515Z,80.57
2019-05-07T01:08:53.693Z,81.17
2019-05-07T01:11:22.641Z,82.37
2019-05-07T01:13:49.496Z,82.61
2019-05-07T01:16:16.258Z,79.86
2019-05-07T01:18:43.032Z,81.09
2019-05-07T01:21:09.807Z,81.01
2019-05-07T01:23:36.659Z,79.43
2019-05-07T01:26:03.756Z,77.47
2019-05-07T01:28:32.948Z,80.75
2019-05-07T01:31:02.093Z,79.95
2019-05-07T01:33:33.325Z,78.12
2019-05-07T01:36:08.357Z,77.87
2019-05-07T01:38:35.139Z,80.49
2019-05-07T01:41:02.874Z,79.07
2019-05-07T01:43:31.967Z,82.26
2019-05-07T01:45:58.372Z,83.92
2019-05-07T01:48:25.063Z,81.59
2019-05-07T01:50:52.634Z,80.55
2019-05-07T01:53:22.710Z,80.84
2019-05-07T01:55:49.407Z,83.48
2019-05-07T01:58:17.440Z,78.79
2019-05-07T02:00:44.282Z,80.22
2019-05-07T02:03:15.754Z,82.85
2019-05-07T02:06:02.211Z,76.81
2019-05-07T02:08:47.726Z,76.65
2019-05-07T02:11:16.303Z,76.84
2019-05-07T02:13:43.100Z,73.85
2019-05-07T02:16:09.873Z,77.68
2019-05-07T02:18:36.622Z,77.49
2019-05-07T02:21:03.576Z,80.96
2019-05-07T02:23:30.302Z,81.31
2019-05-07T02:25:57.177Z,79.43
2019-05-07T02:28:23.895Z,77.37
2019-05-07T02:30:53.292Z,78.16
2019-05-07T02:33:22.971Z,76.10
2019-05-07T02:35:49.260Z,75.31
2019-05-07T02:38:17.771Z,75.93
2019-05-07T02:40:49.159Z,73.14
2019-05-07T02:43:15.882Z,75.88
2019-05-07T02:46:17.436Z,75.31
2019-05-07T02:48:33.341Z,76.31
2019-05-07T02:51:16.270Z,74.25
2019-05-07T02:53:47.915Z,74.99
2019-05-07T02:56:14.626Z,73.36
2019-05-07T02:58:43.444Z,70.93
2019-05-07T03:01:13.442Z,72.19
2019-05-07T03:03:38.668Z,71.87
2019-05-07T03:06:05.631Z,75.29
2019-05-07T03:08:33.286Z,73.16
2019-05-07T03:11:03.300Z,75.34
2019-05-07T03:13:29.314Z,77.22
2019-05-07T03:15:56.172Z,76.77
2019-05-07T03:18:23.486Z,74.20
2019-05-07T03:20:55.340Z,71.10
2019-05-07T03:23:23.822Z,74.83
2019-05-07T03:25:55.978Z,75.45
2019-05-07T03:28:24.683Z,74.67
2019-05-07T03:30:59.010Z,73.87
2019-05-07T03:33:36.704Z,75.41
2019-05-07T03:36:06.871Z,73.06
2019-05-07T03:38:33.539Z,72.12
2019-05-07T03:41:03.415Z,74.99
2019-05-07T03:43:32.321Z,73.95
2019-05-07T03:46:03.745Z,76.14
2019-05-07T03:48:33.251Z,75.01
2019-05-07T03:51:03.392Z,76.33
2019-05-07T03:53:28.961Z,74.51
2019-05-07T03:55:55.955Z,76.89
2019-05-07T03:58:23.812Z,76.19
2019-05-07T04:00:53.646Z,77.74
2019-05-07T04:03:24.109Z,78.19
2019-05-07T04:05:48.267Z,82.95
2019-05-07T04:08:15.016Z,82.07
2019-05-07T04:10:44.249Z,78.65
2019-05-07T04:13:13.231Z,80.62
2019-05-07T04:15:39.149Z,81.32
2019-05-07T04:18:05.845Z,79.77
2019-05-07T04:20:33.379Z,74.99
2019-05-07T04:23:03.995Z,79.59
2019-05-07T04:25:34.352Z,79.04
2019-05-07T04:28:04.575Z,78.71
2019-05-07T04:30:33.030Z,75.71
2019-05-07T04:33:03.409Z,76.73
2019-05-07T04:35:37.938Z,75.76
2019-05-07T04:38:06.999Z,74.30
2019-05-07T04:40:33.963Z,77.37
2019-05-07T04:43:02.709Z,80.42
2019-05-07T04:45:29.504Z,80.71
2019-05-07T04:47:57.183Z,78.66
2019-05-07T04:50:39.280Z,75.36
2019-05-07T04:52:54.659Z,73.38
2019-05-07T04:55:22.960Z,74.92
2019-05-07T04:57:53.082Z,76.25
2019-05-07T05:00:22.707Z,75.64
2019-05-07T05:02:52.982Z,74.23
2019-05-07T05:05:19.813Z,76.59
2019-05-07T05:07:47.505Z,73.37
2019-05-07T05:10:14.592Z,72.75
2019-05-07T05:12:42.787Z,75.14
2019-05-07T05:15:09.958Z,75.33
2019-05-07T05:17:48.106Z,74.23
2019-05-07T05:20:06.946Z,74.05
2019-05-07T05:22:44.368Z,73.07
2019-05-07T05:25:27.921Z,74.43
2019-05-07T05:27:54.889Z,74.34
2019-05-07T05:30:35.791Z,75.39
2019-05-07T05:33:04.391Z,74.52
2019-05-07T05:35:32.203Z,73.47
2019-05-07T05:37:59.019Z,73.73
2019-05-07T05:40:25.942Z,74.24
2019-05-07T05:42:57.588Z,74.12
2019-05-07T05:45:35.085Z,73.27
2019-05-07T05:48:07.420Z,73.92
2019-05-07T05:50:33.170Z,74.07
2019-05-07T05:53:12.219Z,69.77
2019-05-07T05:55:39.342Z,70.37
2019-05-07T05:58:16.673Z,68.47
2019-05-07T06:01:02.546Z,71.26
2019-05-07T06:03:32.209Z,70.53
2019-05-07T06:06:01.971Z,70.36
2019-05-07T06:08:36.595Z,71.09
2019-05-07T06:11:08.198Z,72.00
2019-05-07T06:13:36.949Z,70.14
2019-05-07T06:16:08.558Z,69.10
2019-05-07T06:18:37.067Z,70.33
2019-05-07T06:21:12.608Z,69.70
2019-05-07T06:23:42.079Z,72.46
2019-05-07T06:26:08.916Z,70.59
2019-05-07T06:28:35.746Z,69.76
2019-05-07T06:31:02.758Z,71.29
2019-05-07T06:33:29.600Z,69.39
2019-05-07T06:35:56.356Z,70.36
2019-05-07T06:38:23.824Z,70.18
2019-05-07T06:40:52.565Z,68.65
2019-05-07T06:43:27.097Z,68.63
2019-05-07T06:45:55.711Z,69.27
2019-05-07T06:48:37.775Z,67.31
2019-05-07T06:50:57.393Z,69.59
2019-05-07T06:53:28.487Z,68.34
2019-05-07T06:55:56.405Z,66.20
2019-05-07T06:58:25.276Z,65.47
2019-05-07T07:01:12.134Z,67.24
2019-05-07T07:03:57.078Z,67.27
2019-05-07T07:06:28.548Z,67.41
2019-05-07T07:08:57.302Z,66.41
2019-05-07T07:11:29.222Z,66.50
2019-05-07T07:13:56.264Z,68.50
2019-05-07T07:16:23.098Z,67.83
2019-05-07T07:18:54.932Z,69.53
2019-05-07T07:21:24.444Z,68.06
2019-05-07T07:23:52.366Z,70.27
2019-05-07T07:26:19.517Z,66.93
2019-05-07T07:28:48.201Z,68.13
2019-05-07T07:31:26.266Z,68.23
2019-05-07T07:33:54.945Z,66.85
2019-05-07T07:36:26.321Z,66.23
2019-05-07T07:38:53.156Z,66.70
2019-05-07T07:41:32.689Z,66.41
2019-05-07T07:43:59.365Z,66.44
2019-05-07T07:46:26.136Z,69.28
2019-05-07T07:49:06.884Z,67.58
2019-05-07T07:51:36.851Z,68.66
2019-05-07T07:53:52.012Z,68.63
2019-05-07T07:56:25.676Z,66.16
2019-05-07T07:59:18.318Z,66.77
2019-05-07T08:02:09.055Z,69.43
2019-05-07T08:04:37.399Z,67.78
2019-05-07T08:07:04.857Z,68.02
2019-05-07T08:09:33.071Z,69.39
2019-05-07T08:12:02.651Z,67.97
2019-05-07T08:14:29.678Z,67.68
2019-05-07T08:16:56.880Z,68.31
2019-05-07T08:19:25.091Z,66.58
2019-05-07T08:21:53.182Z,67.19
2019-05-07T08:24:22.573Z,67.25
2019-05-07T08:26:51.881Z,67.29
2019-05-07T08:29:27.040Z,66.23
2019-05-07T08:32:12.614Z,67.09
2019-05-07T08:34:58.856Z,67.22
2019-05-07T08:37:26.776Z,67.33
2019-05-07T08:39:54.736Z,68.52
2019-05-07T08:42:22.819Z,69.77
2019-05-07T08:44:56.167Z,69.17
2019-05-07T08:47:31.917Z,69.80
2019-05-07T08:49:58.761Z,68.71
2019-05-07T08:52:26.157Z,68.83
2019-05-07T08:54:52.943Z,69.30
2019-05-07T08:57:19.608Z,69.97
2019-05-07T08:59:57.418Z,69.52
2019-05-07T09:02:15.078Z,70.46
2019-05-07T09:04:41.929Z,71.33
2019-05-07T09:07:08.695Z,69.69
2019-05-07T09:09:35.509Z,69.77
2019-05-07T09:12:03.029Z,70.18
2019-05-07T09:14:32.048Z,69.91
2019-05-07T09:16:58.930Z,70.36
2019-05-07T09:19:25.612Z,70.79
2019-05-07T09:21:52.765Z,71.04
2019-05-07T09:24:19.724Z,70.34
2019-05-07T09:26:48.419Z,71.84
2019-05-07T09:29:17.004Z,72.39
2019-05-07T09:31:48.503Z,71.29
2019-05-07T09:34:15.808Z,72.99
2019-05-07T09:36:51.863Z,72.86
2019-05-07T09:39:19.643Z,72.25
2019-05-07T09:41:46.346Z,72.49
2019-05-07T09:44:13.109Z,74.22
2019-05-07T09:46:39.861Z,75.09
2019-05-07T09:49:06.638Z,75.15
2019-05-07T09:51:33.377Z,75.58
2019-05-07T09:54:02.389Z,75.44
2019-05-07T09:56:28.643Z,72.19
2019-05-07T09:58:58.372Z,69.59
2019-05-07T10:01:25.048Z,68.94
2019-05-07T10:04:15.309Z,69.04
2019-05-07T10:06:45.526Z,70.54
2019-05-07T10:09:16.404Z,68.02
2019-05-07T10:11:55.024Z,69.83
2019-05-07T10:14:22.881Z,68.72
2019-05-07T10:17:03.113Z,69.36
2019-05-07T10:19:32.436Z,70.66
2019-05-07T10:22:02.185Z,68.04
2019-05-07T10:24:35.909Z,68.96
2019-05-07T10:27:13.315Z,70.29
2019-05-07T10:30:02.800Z,69.35
2019-05-07T10:32:52.828Z,69.82
2019-05-07T10:35:50.031Z,69.98
2019-05-07T10:38:46.539Z,70.30
2019-05-07T10:41:29.377Z,70.23
2019-05-07T10:44:15.070Z,69.08
2019-05-07T10:47:04.368Z,69.05
2019-05-07T10:50:02.775Z,68.31
2019-05-07T10:53:02.077Z,69.53
2019-05-07T10:55:38.604Z,69.74
2019-05-07T10:58:13.866Z,69.83
2019-05-07T11:00:47.260Z,70.26
2019-05-07T11:03:27.246Z,70.79
2019-05-07T11:06:24.086Z,71.13
2019-05-07T11:09:14.451Z,70.82
2019-05-07T11:12:03.298Z,70.26
2019-05-07T11:14:40.516Z,68.76
2019-05-07T11:17:25.994Z,69.57
2019-05-07T11:19:54.712Z,71.85
2019-05-07T11:22:22.741Z,70.77
2019-05-07T11:24:52.219Z,70.59
2019-05-07T11:27:22.431Z,70.35
2019-05-07T11:29:52.301Z,70.30
2019-05-07T11:32:33.678Z,69.93
2019-05-07T11:35:14.754Z,70.26
2019-05-07T11:37:52.016Z,69.52
2019-05-07T11:40:22.691Z,69.99
2019-05-07T11:43:13.062Z,69.67
2019-05-07T11:45:54.376Z,69.49
2019-05-07T11:48:36.539Z,69.52
2019-05-07T11:51:05.979Z,68.96
2019-05-07T11:53:38.575Z,68.79
2019-05-07T11:56:07.902Z,71.26
2019-05-07T11:58:34.793Z,68.73
2019-05-07T12:01:12.297Z,69.28
2019-05-07T12:03:39.615Z,70.72
2019-05-07T12:06:54.695Z,70.79
2019-05-07T12:09:21.862Z,70.65
2019-05-07T12:11:48.664Z,71.36
2019-05-07T12:14:28.111Z,71.00
2019-05-07T12:16:43.980Z,71.65
2019-05-07T12:19:12.670Z,71.18
2019-05-07T12:21:39.379Z,71.15
2019-05-07T12:24:06.162Z,72.04
2019-05-07T12:26:34.670Z,70.69
2019-05-07T12:29:01.402Z,71.81
2019-05-07T12:31:36.018Z,70.63
2019-05-07T12:34:04.588Z,70.72
2019-05-07T12:36:32.010Z,70.85
2019-05-07T12:38:59.049Z,70.66
2019-05-07T12:41:34.537Z,71.12
2019-05-07T12:44:04.585Z,71.22
2019-05-07T12:46:33.415Z,70.35
2019-05-07T12:49:02.865Z,70.24
2019-05-07T12:51:34.518Z,70.50
2019-05-07T12:54:17.865Z,70.20
2019-05-07T12:56:44.789Z,71.23
2019-05-07T12:59:12.827Z,71.15
2019-05-07T13:01:47.491Z,71.00
2019-05-07T13:04:19.022Z,71.07
2019-05-07T13:06:53.671Z,69.34
2019-05-07T13:09:21.941Z,70.32
2019-05-07T13:11:48.782Z,70.86
2019-05-07T13:14:15.599Z,70.10
2019-05-07T13:16:42.277Z,70.14
2019-05-07T13:19:08.986Z,70.62
2019-05-07T13:21:45.901Z,70.54
2019-05-07T13:24:04.441Z,71.28
2019-05-07T13:26:32.267Z,70.39
2019-05-07T13:28:59.339Z,71.06
2019-05-07T13:31:27.898Z,69.55
2019-05-07T13:33:55.786Z,70.17
2019-05-07T13:36:22.658Z,69.87
2019-05-07T13:39:07.939Z,70.14
2019-05-07T13:41:41.337Z,70.11
2019-05-07T13:44:19.366Z,69.61
2019-05-07T13:46:47.726Z,70.99
2019-05-07T13:49:14.420Z,69.27
2019-05-07T13:51:42.169Z,69.70
2019-05-07T13:54:12.698Z,69.18
2019-05-07T13:56:38.943Z,68.63
2019-05-07T13:59:05.642Z,69.35
2019-05-07T14:01:37.265Z,69.25
2019-05-07T14:04:04.305Z,69.66
2019-05-07T14:06:39.921Z,69.77
2019-05-07T14:09:16.711Z,70.18
2019-05-07T14:11:43.607Z,70.26
2019-05-07T14:14:12.286Z,69.97
2019-05-07T14:16:39.321Z,70.83
2019-05-07T14:19:06.042Z,69.78
2019-05-07T14:21:32.721Z,70.33
2019-05-07T14:23:59.642Z,70.78
2019-05-07T14:26:26.352Z,70.42
2019-05-07T14:28:53.029Z,69.80
2019-05-07T14:31:19.778Z,70.01
2019-05-07T14:33:54.597Z,68.45
2019-05-07T14:36:23.333Z,69.97
2019-05-07T14:38:54.007Z,69.97
2019-05-07T14:41:25.318Z,71.19
2019-05-07T14:44:03.122Z,71.05
2019-05-07T14:46:43.651Z,72.53
2019-05-07T14:48:58.866Z,70.22
2019-05-07T14:51:25.752Z,70.10
2019-05-07T14:53:52.472Z,71.13
2019-05-07T14:56:19.174Z,70.10
2019-05-07T14:58:46.028Z,70.48
2019-05-07T15:01:13.031Z,69.78
2019-05-07T15:03:39.751Z,70.08
2019-05-07T15:06:06.626Z,70.42
2019-05-07T15:08:34.441Z,70.46
2019-05-07T15:11:02.790Z,70.25
2019-05-07T15:13:32.156Z,70.16
2019-05-07T15:15:59.268Z,69.86
2019-05-07T15:18:42.987Z,70.85
2019-05-07T15:21:12.217Z,70.25
2019-05-07T15:23:42.296Z,70.44
2019-05-07T15:26:09.150Z,70.43
2019-05-07T15:28:37.860Z,69.83
2019-05-07T15:31:09.261Z,71.06
2019-05-07T15:33:35.937Z,70.60
2019-05-07T15:36:03.332Z,71.40
2019-05-07T15:38:32.392Z,70.12
2019-05-07T15:40:59.532Z,69.91
2019-05-07T15:43:26.615Z,70.66
2019-05-07T15:45:53.377Z,70.87
2019-05-07T15:48:22.030Z,71.56
2019-05-07T15:50:48.809Z,71.09
2019-05-07T15:53:21.909Z,71.33
2019-05-07T15:55:48.765Z,71.25
2019-05-07T15:58:15.432Z,71.12
2019-05-07T16:00:42.655Z,71.90
2019-05-07T16:03:17.291Z,71.00
2019-05-07T16:05:44.046Z,71.77
2019-05-07T16:08:12.660Z,71.53
2019-05-07T16:10:39.363Z,71.79
2019-05-07T16:13:06.894Z,71.81
2019-05-07T16:15:33.716Z,71.94
2019-05-07T16:18:05.269Z,71.71
2019-05-07T16:20:32.689Z,71.76
2019-05-07T16:23:14.302Z,71.96
2019-05-07T16:25:32.830Z,71.04
2019-05-07T16:28:02.101Z,70.70
2019-05-07T16:30:28.843Z,71.54
2019-05-07T16:32:55.672Z,71.33
2019-05-07T16:35:22.834Z,70.16
2019-05-07T16:37:49.685Z,70.71
2019-05-07T16:40:16.772Z,71.32
2019-05-07T16:42:43.662Z,71.30
2019-05-07T16:45:13.034Z,71.78
2019-05-07T16:47:39.614Z,71.54
2019-05-07T16:50:07.560Z,71.71
2019-05-07T16:52:35.213Z,71.10
2019-05-07T16:55:03.225Z,71.03
2019-05-07T16:57:51.543Z,71.80
2019-05-07T17:00:24.567Z,70.90
2019-05-07T17:02:53.174Z,71.02
2019-05-07T17:05:19.886Z,70.93
2019-05-07T17:07:48.491Z,71.22
2019-05-07T17:10:16.592Z,71.80
2019-05-07T17:12:44.742Z,71.61
2019-05-07T17:15:12.637Z,71.15
2019-05-07T17:17:39.419Z,70.94
2019-05-07T17:20:07.005Z,70.49
2019-05-07T17:22:33.927Z,71.10
2019-05-07T17:25:03.159Z,71.66
2019-05-07T17:27:32.063Z,71.14
2019-05-07T17:29:58.848Z,70.91
2019-05-07T17:32:25.513Z,71.03
2019-05-07T17:34:53.230Z,70.33
2019-05-07T17:37:19.987Z,70.53
2019-05-07T17:39:46.781Z,71.11
2019-05-07T17:42:13.477Z,70.50
2019-05-07T17:44:40.238Z,70.87
2019-05-07T17:47:07.182Z,70.54
2019-05-07T17:49:36.298Z,70.48
2019-05-07T17:52:03.048Z,70.69
2019-05-07T17:54:31.690Z,70.61
2019-05-07T17:56:58.487Z,70.32
2019-05-07T17:59:25.323Z,71.01
2019-05-07T18:02:08.725Z,70.80
2019-05-07T18:04:48.544Z,71.53
2019-05-07T18:07:05.964Z,71.71
2019-05-07T18:09:32.661Z,71.08
2019-05-07T18:11:59.569Z,70.98
2019-05-07T18:14:26.388Z,71.66
2019-05-07T18:16:57.664Z,71.84
2019-05-07T18:19:24.719Z,72.49
2019-05-07T18:21:52.445Z,72.13
2019-05-07T18:24:19.256Z,72.05
2019-05-07T18:26:46.328Z,71.91
2019-05-07T18:29:13.023Z,73.63
2019-05-07T18:31:47.325Z,72.58
2019-05-07T18:34:14.206Z,72.45
2019-05-07T18:36:42.226Z,73.29
2019-05-07T18:39:09.130Z,73.27
2019-05-07T18:41:35.972Z,73.49
2019-05-07T18:44:12.203Z,73.92
2019-05-07T18:46:32.737Z,74.13
2019-05-07T18:48:59.678Z,74.70
2019-05-07T18:51:26.566Z,74.88
2019-05-07T18:53:53.370Z,75.28
2019-05-07T18:56:22.119Z,75.38
2019-05-07T18:58:48.926Z,76.38
2019-05-07T19:01:17.097Z,76.86
2019-05-07T19:03:44.053Z,76.93
2019-05-07T19:06:13.142Z,77.25
2019-05-07T19:08:42.076Z,77.03
2019-05-07T19:11:08.665Z,76.57
2019-05-07T19:13:35.674Z,77.39
2019-05-07T19:16:03.849Z,77.62
2019-05-07T19:18:32.227Z,76.89
2019-05-07T19:20:59.070Z,77.95
2019-05-07T19:23:25.915Z,78.26
2019-05-07T19:25:52.715Z,77.76
2019-05-07T19:28:19.488Z,78.63
2019-05-07T19:30:46.395Z,77.79
2019-05-07T19:33:13.314Z,78.50
2019-05-07T19:35:41.863Z,77.78
2019-05-07T19:38:08.929Z,77.99
2019-05-07T19:40:35.747Z,78.40
2019-05-07T19:43:03.089Z,78.26
2019-05-07T19:45:30.121Z,78.40
2019-05-07T19:47:56.838Z,78.68
2019-05-07T19:50:23.574Z,78.64
2019-05-07T19:52:52.203Z,78.98
2019-05-07T19:55:19.021Z,78.48
2019-05-07T19:57:47.547Z,78.60
2019-05-07T20:00:15.008Z,78.76
2019-05-07T20:02:49.696Z,78.64
2019-05-07T20:05:16.614Z,79.04
2019-05-07T20:07:43.321Z,79.06
2019-05-07T20:10:12.100Z,79.35
2019-05-07T20:12:38.987Z,79.77
2019-05-07T20:15:06.222Z,79.01
2019-05-07T20:17:33.951Z,79.64
2019-05-07T20:20:03.172Z,80.33
2019-05-07T20:22:30.039Z,81.35
2019-05-07T20:24:56.740Z,81.63
2019-05-07T20:27:23.762Z,81.16
2019-05-07T20:29:52.360Z,80.66
2019-05-07T20:32:22.167Z,82.17
2019-05-07T20:34:48.825Z,82.44
2019-05-07T20:37:15.603Z,80.82
2019-05-07T20:39:42.726Z,81.83
2019-05-07T20:42:09.708Z,80.69
2019-05-07T20:44:36.373Z,81.37
2019-05-07T20:47:03.270Z,81.09
2019-05-07T20:49:32.015Z,81.31
2019-05-07T20:51:58.677Z,81.24
2019-05-07T20:54:27.226Z,81.50
2019-05-07T20:56:55.802Z,81.57
2019-05-07T20:59:22.579Z,81.89
2019-05-07T21:01:49.282Z,82.44
2019-05-07T21:04:16.826Z,82.71
2019-05-07T21:06:43.733Z,82.58
2019-05-07T21:09:12.640Z,82.73
2019-05-07T21:11:39.522Z,83.23
2019-05-07T21:14:06.216Z,82.86
2019-05-07T21:16:33.069Z,83.66
2019-05-07T21:19:01.965Z,83.25
2019-05-07T21:21:28.710Z,83.24
2019-05-07T21:23:55.374Z,82.53
2019-05-07T21:26:22.610Z,82.74
2019-05-07T21:28:49.380Z,80.94
2019-05-07T21:31:16.266Z,82.02
2019-05-07T21:33:43.060Z,82.93
2019-05-07T21:36:12.149Z,82.28
2019-05-07T21:38:38.580Z,82.00
2019-05-07T21:41:05.336Z,81.96
2019-05-07T21:43:32.659Z,82.61
2019-05-07T21:45:59.524Z,82.63
2019-05-07T21:48:26.318Z,82.30
2019-05-07T21:50:53.806Z,82.69
2019-05-07T21:53:25.126Z,81.86
2019-05-07T21:56:05.295Z,81.96
2019-05-07T21:58:33.254Z,82.28
2019-05-07T22:01:12.516Z,81.25
2019-05-07T22:03:43.951Z,80.89
2019-05-07T22:06:12.918Z,81.12
2019-05-07T22:08:39.589Z,81.02
2019-05-07T22:11:06.288Z,81.20
2019-05-07T22:13:33.149Z,81.47
2019-05-07T22:16:02.034Z,80.84
2019-05-07T22:18:28.577Z,80.37
2019-05-07T22:20:55.266Z,80.17
2019-05-07T22:26:20.061Z,79.38
2019-05-07T22:28:37.928Z,79.56
2019-05-07T22:31:12.771Z,79.30
2019-05-07T22:33:41.783Z,79.35
2019-05-07T22:36:12.543Z,78.35
2019-05-07T22:38:40.747Z,77.75
2019-05-07T22:41:09.252Z,78.44
2019-05-07T22:43:36.007Z,77.70
2019-05-07T22:46:02.945Z,77.51
2019-05-07T22:48:29.648Z,76.65
2019-05-07T22:50:56.396Z,77.36
2019-05-07T22:53:23.202Z,76.33
2019-05-07T22:55:52.381Z,77.03
2019-05-07T22:58:22.005Z,77.24
2019-05-07T23:00:50.726Z,75.83
2019-05-07T23:03:17.422Z,75.02
2019-05-07T23:05:44.918Z,75.66
2019-05-07T23:08:12.782Z,75.18
2019-05-07T23:10:39.621Z,75.43
2019-05-07T23:13:06.324Z,74.94
2019-05-07T23:15:33.225Z,75.69
2019-05-07T23:18:04.188Z,75.31
2019-05-07T23:20:28.786Z,75.77
2019-05-07T23:22:55.618Z,75.23
2019-05-07T23:25:24.437Z,75.72
2019-05-07T23:27:52.493Z,75.75
2019-05-07T23:30:22.347Z,76.14
2019-05-07T23:32:49.157Z,76.27
2019-05-07T23:35:16.025Z,74.91
2019-05-07T23:37:44.282Z,75.17
2019-05-07T23:40:29.873Z,75.21
2019-05-07T23:42:58.498Z,75.24
2019-05-07T23:45:25.183Z,75.61
2019-05-07T23:47:52.001Z,75.59
2019-05-07T23:50:18.828Z,75.72
2019-05-07T23:52:45.512Z,75.47
2019-05-07T23:55:12.259Z,74.86
2019-05-07T23:57:39.106Z,75.78
